sensor_id;sensor_type;location;lat;lon;timestamp;P1;P2;P0
56495;PMS5003;42804;55.762;38.084;2023-07-31T00:01:44;13.00;12.50;9.00
56495;PMS5003;42804;55.762;38.084;2023-07-31T00:04:12;14.25;11.75;10.00
56495;PMS5003;42804;55.762;38.084;2023-07-31T00:06:41;13.25;13.25;10.00
56495;PMS5003;42804;55.762;38.084;2023-07-31T00:09:09;14.75;14.00;9.50
56495;PMS5003;42804;55.762;38.084;2023-07-31T00:11:37;15.25;15.00;11.00
56495;PMS5003;42804;55.762;38.084;2023-07-31T00:14:06;14.00;12.25;9.00
56495;PMS5003;42804;55.762;38.084;2023-07-31T00:16:35;15.00;10.25;8.50
56495;PMS5003;42804;55.762;38.084;2023-07-31T00:19:04;15.50;15.25;10.00
56495;PMS5003;42804;55.762;38.084;2023-07-31T00:21:32;15.00;13.75;10.00
56495;PMS5003;42804;55.762;38.084;2023-07-31T00:24:00;15.00;15.00;10.50
56495;PMS5003;42804;55.762;38.084;2023-07-31T00:26:28;16.50;16.25;10.00
56495;PMS5003;42804;55.762;38.084;2023-07-31T00:28:57;11.50;11.00;7.75
56495;PMS5003;42804;55.762;38.084;2023-07-31T00:31:26;18.50;16.00;11.25
56495;PMS5003;42804;55.762;38.084;2023-07-31T00:33:55;15.25;14.00;10.00
56495;PMS5003;42804;55.762;38.084;2023-07-31T00:36:24;11.75;10.75;7.00
56495;PMS5003;42804;55.762;38.084;2023-07-31T00:38:52;15.25;13.75;9.50
56495;PMS5003;42804;55.762;38.084;2023-07-31T00:41:20;14.50;14.00;9.25
56495;PMS5003;42804;55.762;38.084;2023-07-31T00:43:49;13.00;12.50;9.25
56495;PMS5003;42804;55.762;38.084;2023-07-31T00:46:17;13.00;10.50;7.50
56495;PMS5003;42804;55.762;38.084;2023-07-31T00:48:45;16.75;13.25;9.75
56495;PMS5003;42804;55.762;38.084;2023-07-31T00:51:15;12.75;11.25;9.00
56495;PMS5003;42804;55.762;38.084;2023-07-31T00:53:43;14.75;12.75;9.00
56495;PMS5003;42804;55.762;38.084;2023-07-31T00:56:13;11.25;11.25;8.75
56495;PMS5003;42804;55.762;38.084;2023-07-31T00:58:41;10.75;10.75;8.00
56495;PMS5003;42804;55.762;38.084;2023-07-31T01:01:09;15.50;15.00;10.25
56495;PMS5003;42804;55.762;38.084;2023-07-31T01:03:37;16.00;15.00;10.50
56495;PMS5003;42804;55.762;38.084;2023-07-31T01:06:09;14.50;11.50;8.75
56495;PMS5003;42804;55.762;38.084;2023-07-31T01:08:47;16.00;14.75;10.00
56495;PMS5003;42804;55.762;38.084;2023-07-31T01:11:19;11.00;10.75;8.00
56495;PMS5003;42804;55.762;38.084;2023-07-31T01:13:50;18.25;16.00;10.00
56495;PMS5003;42804;55.762;38.084;2023-07-31T01:16:18;13.00;12.25;9.00
56495;PMS5003;42804;55.762;38.084;2023-07-31T01:18:46;17.00;16.00;11.00
56495;PMS5003;42804;55.762;38.084;2023-07-31T01:21:20;14.25;13.75;9.00
56495;PMS5003;42804;55.762;38.084;2023-07-31T01:26:38;14.75;14.25;9.50
56495;PMS5003;42804;55.762;38.084;2023-07-31T01:29:09;18.00;15.50;13.00
56495;PMS5003;42804;55.762;38.084;2023-07-31T01:31:38;16.00;15.50;11.00
56495;PMS5003;42804;55.762;38.084;2023-07-31T01:34:07;14.50;14.25;10.75
56495;PMS5003;42804;55.762;38.084;2023-07-31T01:36:36;14.50;14.25;10.00
56495;PMS5003;42804;55.762;38.084;2023-07-31T01:39:05;15.25;14.50;10.00
56495;PMS5003;42804;55.762;38.084;2023-07-31T01:41:34;17.75;17.00;12.00
56495;PMS5003;42804;55.762;38.084;2023-07-31T01:44:03;16.50;15.75;12.00
56495;PMS5003;42804;55.762;38.084;2023-07-31T01:46:32;13.50;13.50;9.00
56495;PMS5003;42804;55.762;38.084;2023-07-31T01:49:00;17.25;16.25;10.00
56495;PMS5003;42804;55.762;38.084;2023-07-31T01:51:28;12.50;11.75;9.00
56495;PMS5003;42804;55.762;38.084;2023-07-31T01:54:00;14.75;13.75;9.50
56495;PMS5003;42804;55.762;38.084;2023-07-31T01:56:32;12.75;12.25;8.75
56495;PMS5003;42804;55.762;38.084;2023-07-31T01:59:00;17.00;13.50;11.25
56495;PMS5003;42804;55.762;38.084;2023-07-31T02:01:29;14.25;12.50;9.50
56495;PMS5003;42804;55.762;38.084;2023-07-31T02:03:58;6.75;6.75;5.00
56495;PMS5003;42804;55.762;38.084;2023-07-31T02:06:26;11.75;11.75;9.00
56495;PMS5003;42804;55.762;38.084;2023-07-31T02:08:54;10.75;10.25;6.50
56495;PMS5003;42804;55.762;38.084;2023-07-31T02:11:22;12.75;11.25;9.00
56495;PMS5003;42804;55.762;38.084;2023-07-31T02:13:51;11.00;10.75;8.75
56495;PMS5003;42804;55.762;38.084;2023-07-31T02:16:19;12.50;11.00;8.00
56495;PMS5003;42804;55.762;38.084;2023-07-31T02:18:49;9.75;8.00;6.75
56495;PMS5003;42804;55.762;38.084;2023-07-31T02:21:17;12.50;12.50;9.75
56495;PMS5003;42804;55.762;38.084;2023-07-31T02:23:45;12.75;12.00;9.00
56495;PMS5003;42804;55.762;38.084;2023-07-31T02:26:13;11.50;11.25;9.00
56495;PMS5003;42804;55.762;38.084;2023-07-31T02:28:41;12.50;12.50;9.25
56495;PMS5003;42804;55.762;38.084;2023-07-31T02:31:11;12.20;11.00;8.80
56495;PMS5003;42804;55.762;38.084;2023-07-31T02:33:39;17.25;16.00;11.25
56495;PMS5003;42804;55.762;38.084;2023-07-31T02:36:09;15.50;14.50;11.00
56495;PMS5003;42804;55.762;38.084;2023-07-31T02:38:38;14.25;13.25;10.00
56495;PMS5003;42804;55.762;38.084;2023-07-31T02:41:06;13.75;13.75;10.00
56495;PMS5003;42804;55.762;38.084;2023-07-31T02:43:34;14.75;12.00;9.00
56495;PMS5003;42804;55.762;38.084;2023-07-31T02:46:02;11.20;11.20;7.00
56495;PMS5003;42804;55.762;38.084;2023-07-31T02:48:31;13.50;12.75;8.00
56495;PMS5003;42804;55.762;38.084;2023-07-31T02:50:59;11.40;11.40;8.80
56495;PMS5003;42804;55.762;38.084;2023-07-31T02:53:28;11.00;9.25;7.00
56495;PMS5003;42804;55.762;38.084;2023-07-31T02:55:57;13.75;12.25;7.75
56495;PMS5003;42804;55.762;38.084;2023-07-31T02:58:25;14.75;13.00;9.25
56495;PMS5003;42804;55.762;38.084;2023-07-31T03:00:53;12.75;11.75;8.75
56495;PMS5003;42804;55.762;38.084;2023-07-31T03:03:21;12.00;12.00;8.75
56495;PMS5003;42804;55.762;38.084;2023-07-31T03:05:50;11.75;11.00;9.25
56495;PMS5003;42804;55.762;38.084;2023-07-31T03:08:18;10.50;10.25;8.00
56495;PMS5003;42804;55.762;38.084;2023-07-31T03:10:47;8.25;7.00;6.00
56495;PMS5003;42804;55.762;38.084;2023-07-31T03:13:15;9.25;9.00;7.00
56495;PMS5003;42804;55.762;38.084;2023-07-31T03:15:47;10.50;10.25;7.00
56495;PMS5003;42804;55.762;38.084;2023-07-31T03:18:15;12.00;11.50;8.00
56495;PMS5003;42804;55.762;38.084;2023-07-31T03:20:43;8.50;8.50;6.00
56495;PMS5003;42804;55.762;38.084;2023-07-31T03:23:12;9.00;8.00;7.00
56495;PMS5003;42804;55.762;38.084;2023-07-31T03:25:41;8.00;8.00;4.75
56495;PMS5003;42804;55.762;38.084;2023-07-31T03:28:24;8.25;8.25;6.00
56495;PMS5003;42804;55.762;38.084;2023-07-31T03:30:52;10.00;10.00;6.50
56495;PMS5003;42804;55.762;38.084;2023-07-31T03:33:21;10.50;10.00;7.50
56495;PMS5003;42804;55.762;38.084;2023-07-31T03:35:50;11.75;11.25;7.50
56495;PMS5003;42804;55.762;38.084;2023-07-31T03:38:18;11.75;11.00;7.00
56495;PMS5003;42804;55.762;38.084;2023-07-31T03:40:46;8.75;8.25;6.25
56495;PMS5003;42804;55.762;38.084;2023-07-31T03:43:14;10.25;10.25;7.50
56495;PMS5003;42804;55.762;38.084;2023-07-31T03:45:44;10.00;9.50;6.50
56495;PMS5003;42804;55.762;38.084;2023-07-31T03:48:13;12.50;11.50;7.00
56495;PMS5003;42804;55.762;38.084;2023-07-31T03:50:42;8.25;8.25;6.50
56495;PMS5003;42804;55.762;38.084;2023-07-31T03:53:10;8.25;8.00;6.00
56495;PMS5003;42804;55.762;38.084;2023-07-31T03:55:38;9.00;9.00;7.00
56495;PMS5003;42804;55.762;38.084;2023-07-31T03:58:06;9.25;9.00;7.00
56495;PMS5003;42804;55.762;38.084;2023-07-31T04:00:35;6.50;6.50;3.50
56495;PMS5003;42804;55.762;38.084;2023-07-31T04:03:05;10.75;9.25;6.50
56495;PMS5003;42804;55.762;38.084;2023-07-31T04:05:33;9.00;7.25;5.25
56495;PMS5003;42804;55.762;38.084;2023-07-31T04:08:05;10.75;9.75;7.00
56495;PMS5003;42804;55.762;38.084;2023-07-31T04:10:33;7.00;7.00;5.00
56495;PMS5003;42804;55.762;38.084;2023-07-31T04:13:01;10.75;9.00;6.00
56495;PMS5003;42804;55.762;38.084;2023-07-31T04:15:29;7.00;6.75;5.00
56495;PMS5003;42804;55.762;38.084;2023-07-31T04:17:58;12.50;10.25;6.50
56495;PMS5003;42804;55.762;38.084;2023-07-31T04:20:27;6.50;6.50;5.75
56495;PMS5003;42804;55.762;38.084;2023-07-31T04:22:56;9.00;9.00;7.00
56495;PMS5003;42804;55.762;38.084;2023-07-31T04:25:29;7.00;6.25;4.00
56495;PMS5003;42804;55.762;38.084;2023-07-31T04:27:58;7.50;7.25;5.00
56495;PMS5003;42804;55.762;38.084;2023-07-31T04:30:26;7.25;6.50;5.50
56495;PMS5003;42804;55.762;38.084;2023-07-31T04:32:54;6.25;6.25;5.00
56495;PMS5003;42804;55.762;38.084;2023-07-31T04:35:23;6.75;6.75;4.00
56495;PMS5003;42804;55.762;38.084;2023-07-31T04:37:52;9.00;8.00;6.00
56495;PMS5003;42804;55.762;38.084;2023-07-31T04:40:20;8.00;7.20;6.00
56495;PMS5003;42804;55.762;38.084;2023-07-31T04:42:49;9.00;8.60;6.00
56495;PMS5003;42804;55.762;38.084;2023-07-31T04:45:17;8.25;7.00;5.75
56495;PMS5003;42804;55.762;38.084;2023-07-31T04:47:45;9.25;8.75;5.25
56495;PMS5003;42804;55.762;38.084;2023-07-31T04:50:13;7.20;6.40;4.60
56495;PMS5003;42804;55.762;38.084;2023-07-31T04:52:41;7.25;7.00;4.50
56495;PMS5003;42804;55.762;38.084;2023-07-31T04:55:11;7.00;6.75;5.00
56495;PMS5003;42804;55.762;38.084;2023-07-31T04:57:40;7.50;7.50;5.25
56495;PMS5003;42804;55.762;38.084;2023-07-31T05:00:08;6.00;6.00;5.25
56495;PMS5003;42804;55.762;38.084;2023-07-31T05:02:36;5.00;5.00;3.00
56495;PMS5003;42804;55.762;38.084;2023-07-31T05:05:05;9.00;8.00;5.20
56495;PMS5003;42804;55.762;38.084;2023-07-31T05:07:33;8.40;8.40;5.80
56495;PMS5003;42804;55.762;38.084;2023-07-31T05:10:02;7.00;7.00;5.20
56495;PMS5003;42804;55.762;38.084;2023-07-31T05:12:31;4.00;4.00;3.00
56495;PMS5003;42804;55.762;38.084;2023-07-31T05:14:59;5.00;5.00;4.00
56495;PMS5003;42804;55.762;38.084;2023-07-31T05:17:29;6.25;6.00;5.00
56495;PMS5003;42804;55.762;38.084;2023-07-31T05:19:57;5.40;4.40;3.00
56495;PMS5003;42804;55.762;38.084;2023-07-31T05:22:25;7.00;6.00;4.25
56495;PMS5003;42804;55.762;38.084;2023-07-31T05:24:53;7.00;7.00;5.75
56495;PMS5003;42804;55.762;38.084;2023-07-31T05:27:22;6.25;6.25;5.00
56495;PMS5003;42804;55.762;38.084;2023-07-31T05:29:51;3.60;3.60;2.60
56495;PMS5003;42804;55.762;38.084;2023-07-31T05:32:19;7.00;6.50;5.00
56495;PMS5003;42804;55.762;38.084;2023-07-31T05:34:50;7.25;6.50;5.00
56495;PMS5003;42804;55.762;38.084;2023-07-31T05:37:18;6.00;6.00;4.75
56495;PMS5003;42804;55.762;38.084;2023-07-31T05:39:46;6.25;5.00;4.00
56495;PMS5003;42804;55.762;38.084;2023-07-31T05:42:15;6.75;6.50;5.00
56495;PMS5003;42804;55.762;38.084;2023-07-31T05:44:43;4.00;4.00;3.00
56495;PMS5003;42804;55.762;38.084;2023-07-31T05:47:13;4.75;4.75;3.50
56495;PMS5003;42804;55.762;38.084;2023-07-31T05:49:41;5.75;5.50;4.25
56495;PMS5003;42804;55.762;38.084;2023-07-31T05:52:09;4.25;4.25;3.00
56495;PMS5003;42804;55.762;38.084;2023-07-31T05:54:37;4.00;4.00;3.00
56495;PMS5003;42804;55.762;38.084;2023-07-31T05:57:05;5.00;4.00;2.75
56495;PMS5003;42804;55.762;38.084;2023-07-31T05:59:34;6.50;6.25;4.25
56495;PMS5003;42804;55.762;38.084;2023-07-31T06:02:02;6.00;6.00;4.75
56495;PMS5003;42804;55.762;38.084;2023-07-31T06:04:32;6.00;6.00;4.00
56495;PMS5003;42804;55.762;38.084;2023-07-31T06:07:00;4.00;4.00;3.50
56495;PMS5003;42804;55.762;38.084;2023-07-31T06:09:28;6.00;5.75;4.00
56495;PMS5003;42804;55.762;38.084;2023-07-31T06:11:56;2.50;2.50;1.00
56495;PMS5003;42804;55.762;38.084;2023-07-31T06:14:25;5.25;5.25;4.75
56495;PMS5003;42804;55.762;38.084;2023-07-31T06:16:53;6.75;6.00;3.25
56495;PMS5003;42804;55.762;38.084;2023-07-31T06:19:21;4.00;3.75;2.75
56495;PMS5003;42804;55.762;38.084;2023-07-31T06:21:51;3.00;3.00;2.00
56495;PMS5003;42804;55.762;38.084;2023-07-31T06:24:19;6.00;6.00;5.00
56495;PMS5003;42804;55.762;38.084;2023-07-31T06:26:48;4.00;4.00;3.00
56495;PMS5003;42804;55.762;38.084;2023-07-31T06:29:20;6.80;6.20;5.00
56495;PMS5003;42804;55.762;38.084;2023-07-31T06:31:48;6.25;6.25;4.50
56495;PMS5003;42804;55.762;38.084;2023-07-31T06:34:16;3.50;3.50;2.00
56495;PMS5003;42804;55.762;38.084;2023-07-31T06:36:55;6.75;6.75;5.00
56495;PMS5003;42804;55.762;38.084;2023-07-31T06:39:23;6.20;6.00;4.00
56495;PMS5003;42804;55.762;38.084;2023-07-31T06:41:51;6.00;5.00;4.00
56495;PMS5003;42804;55.762;38.084;2023-07-31T06:44:20;5.00;5.00;3.50
56495;PMS5003;42804;55.762;38.084;2023-07-31T06:46:48;6.00;6.00;4.00
56495;PMS5003;42804;55.762;38.084;2023-07-31T06:49:16;3.00;3.00;2.00
56495;PMS5003;42804;55.762;38.084;2023-07-31T06:51:44;5.00;4.40;3.80
56495;PMS5003;42804;55.762;38.084;2023-07-31T06:54:14;4.00;4.00;3.00
56495;PMS5003;42804;55.762;38.084;2023-07-31T06:56:45;5.80;5.00;3.80
56495;PMS5003;42804;55.762;38.084;2023-07-31T06:59:14;5.60;4.60;3.00
56495;PMS5003;42804;55.762;38.084;2023-07-31T07:01:43;5.00;4.60;3.20
56495;PMS5003;42804;55.762;38.084;2023-07-31T07:04:11;4.20;3.60;3.00
56495;PMS5003;42804;55.762;38.084;2023-07-31T07:06:39;2.00;2.00;1.80
56495;PMS5003;42804;55.762;38.084;2023-07-31T07:09:08;4.20;4.00;3.00
56495;PMS5003;42804;55.762;38.084;2023-07-31T07:11:38;3.40;3.40;3.00
56495;PMS5003;42804;55.762;38.084;2023-07-31T07:14:07;4.00;3.00;2.75
56495;PMS5003;42804;55.762;38.084;2023-07-31T07:16:35;4.00;4.00;3.00
56495;PMS5003;42804;55.762;38.084;2023-07-31T07:19:04;6.20;5.40;3.80
56495;PMS5003;42804;55.762;38.084;2023-07-31T07:21:32;3.20;3.00;2.00
56495;PMS5003;42804;55.762;38.084;2023-07-31T07:24:00;4.00;4.00;2.50
56495;PMS5003;42804;55.762;38.084;2023-07-31T07:26:29;10.75;9.75;6.25
56495;PMS5003;42804;55.762;38.084;2023-07-31T07:28:58;3.80;3.80;2.00
56495;PMS5003;42804;55.762;38.084;2023-07-31T07:31:29;4.25;4.25;2.75
56495;PMS5003;42804;55.762;38.084;2023-07-31T07:33:57;4.00;4.00;3.00
56495;PMS5003;42804;55.762;38.084;2023-07-31T07:36:27;3.80;3.80;3.60
56495;PMS5003;42804;55.762;38.084;2023-07-31T07:38:55;5.00;4.00;3.00
56495;PMS5003;42804;55.762;38.084;2023-07-31T07:41:24;4.25;4.25;3.00
56495;PMS5003;42804;55.762;38.084;2023-07-31T07:43:52;2.00;2.00;2.00
56495;PMS5003;42804;55.762;38.084;2023-07-31T07:46:22;3.20;3.00;2.00
56495;PMS5003;42804;55.762;38.084;2023-07-31T07:48:50;3.00;3.00;2.00
56495;PMS5003;42804;55.762;38.084;2023-07-31T07:51:18;0.80;0.80;0.00
56495;PMS5003;42804;55.762;38.084;2023-07-31T07:53:47;2.00;2.00;1.80
56495;PMS5003;42804;55.762;38.084;2023-07-31T07:56:15;2.80;2.80;1.00
56495;PMS5003;42804;55.762;38.084;2023-07-31T07:58:43;2.60;2.00;1.60
56495;PMS5003;42804;55.762;38.084;2023-07-31T08:01:11;4.20;4.20;3.20
56495;PMS5003;42804;55.762;38.084;2023-07-31T08:03:41;2.60;2.60;1.80
56495;PMS5003;42804;55.762;38.084;2023-07-31T08:06:10;4.20;3.20;3.00
56495;PMS5003;42804;55.762;38.084;2023-07-31T08:08:38;2.00;2.00;1.25
56495;PMS5003;42804;55.762;38.084;2023-07-31T08:11:06;4.00;4.00;3.00
56495;PMS5003;42804;55.762;38.084;2023-07-31T08:13:35;4.00;3.75;2.00
56495;PMS5003;42804;55.762;38.084;2023-07-31T08:16:03;2.00;2.00;1.00
56495;PMS5003;42804;55.762;38.084;2023-07-31T08:18:31;3.00;3.00;2.00
56495;PMS5003;42804;55.762;38.084;2023-07-31T08:21:02;3.00;3.00;2.00
56495;PMS5003;42804;55.762;38.084;2023-07-31T08:23:30;0.80;0.80;0.00
56495;PMS5003;42804;55.762;38.084;2023-07-31T08:25:59;3.80;3.80;3.00
56495;PMS5003;42804;55.762;38.084;2023-07-31T08:28:27;3.40;3.40;2.60
56495;PMS5003;42804;55.762;38.084;2023-07-31T08:30:56;3.80;3.80;2.40
56495;PMS5003;42804;55.762;38.084;2023-07-31T08:33:24;4.00;3.20;2.40
56495;PMS5003;42804;55.762;38.084;2023-07-31T08:35:53;1.00;1.00;0.20
56495;PMS5003;42804;55.762;38.084;2023-07-31T08:38:23;3.80;3.80;3.00
56495;PMS5003;42804;55.762;38.084;2023-07-31T08:40:52;1.25;1.25;0.00
56495;PMS5003;42804;55.762;38.084;2023-07-31T08:43:21;3.20;3.20;2.20
56495;PMS5003;42804;55.762;38.084;2023-07-31T08:45:50;3.00;3.00;2.00
56495;PMS5003;42804;55.762;38.084;2023-07-31T08:48:19;4.00;4.00;2.60
56495;PMS5003;42804;55.762;38.084;2023-07-31T08:50:47;3.00;3.00;2.00
56495;PMS5003;42804;55.762;38.084;2023-07-31T08:53:15;3.20;3.20;2.00
56495;PMS5003;42804;55.762;38.084;2023-07-31T08:55:45;3.00;3.00;2.00
56495;PMS5003;42804;55.762;38.084;2023-07-31T08:58:14;2.00;2.00;1.20
56495;PMS5003;42804;55.762;38.084;2023-07-31T09:00:42;2.00;2.00;1.75
56495;PMS5003;42804;55.762;38.084;2023-07-31T09:03:13;3.00;3.00;1.67
56495;PMS5003;42804;55.762;38.084;2023-07-31T09:05:42;3.00;2.00;2.00
56495;PMS5003;42804;55.762;38.084;2023-07-31T09:08:14;2.00;2.00;2.00
56495;PMS5003;42804;55.762;38.084;2023-07-31T09:10:43;2.00;2.00;2.00
56495;PMS5003;42804;55.762;38.084;2023-07-31T09:13:14;2.00;2.00;1.00
56495;PMS5003;42804;55.762;38.084;2023-07-31T09:15:43;2.40;2.40;2.00
56495;PMS5003;42804;55.762;38.084;2023-07-31T09:18:11;2.00;2.00;1.20
56495;PMS5003;42804;55.762;38.084;2023-07-31T09:20:41;4.20;4.20;4.00
56495;PMS5003;42804;55.762;38.084;2023-07-31T09:23:09;3.50;3.50;2.25
56495;PMS5003;42804;55.762;38.084;2023-07-31T09:25:38;3.20;3.00;3.00
56495;PMS5003;42804;55.762;38.084;2023-07-31T09:28:07;3.25;3.25;2.00
56495;PMS5003;42804;55.762;38.084;2023-07-31T09:30:46;5.00;5.00;4.00
56495;PMS5003;42804;55.762;38.084;2023-07-31T09:33:15;5.00;5.00;4.00
56495;PMS5003;42804;55.762;38.084;2023-07-31T09:35:44;4.75;4.75;4.00
56495;PMS5003;42804;55.762;38.084;2023-07-31T09:38:12;5.00;5.00;3.00
56495;PMS5003;42804;55.762;38.084;2023-07-31T09:40:42;5.00;5.00;4.00
56495;PMS5003;42804;55.762;38.084;2023-07-31T09:43:11;3.00;3.00;2.00
56495;PMS5003;42804;55.762;38.084;2023-07-31T09:45:41;2.60;2.60;2.00
56495;PMS5003;42804;55.762;38.084;2023-07-31T09:48:11;4.00;4.00;3.20
56495;PMS5003;42804;55.762;38.084;2023-07-31T09:50:41;3.80;3.80;3.00
56495;PMS5003;42804;55.762;38.084;2023-07-31T09:53:10;6.20;6.00;4.00
56495;PMS5003;42804;55.762;38.084;2023-07-31T09:55:42;3.20;2.60;2.00
56495;PMS5003;42804;55.762;38.084;2023-07-31T09:58:11;4.20;4.20;3.60
56495;PMS5003;42804;55.762;38.084;2023-07-31T10:00:39;4.60;4.20;3.40
56495;PMS5003;42804;55.762;38.084;2023-07-31T10:03:11;5.80;5.80;5.00
56495;PMS5003;42804;55.762;38.084;2023-07-31T10:05:42;7.80;7.80;7.00
56495;PMS5003;42804;55.762;38.084;2023-07-31T10:08:11;5.20;5.20;4.00
56495;PMS5003;42804;55.762;38.084;2023-07-31T10:10:41;6.25;6.25;5.25
56495;PMS5003;42804;55.762;38.084;2023-07-31T10:13:10;7.00;7.00;5.00
56495;PMS5003;42804;55.762;38.084;2023-07-31T10:15:39;4.60;4.60;3.80
56495;PMS5003;42804;55.762;38.084;2023-07-31T10:18:08;4.60;4.20;2.20
56495;PMS5003;42804;55.762;38.084;2023-07-31T10:20:38;3.75;3.25;3.00
56495;PMS5003;42804;55.762;38.084;2023-07-31T10:23:06;6.00;6.00;5.20
56495;PMS5003;42804;55.762;38.084;2023-07-31T10:25:34;10.00;9.33;7.00
56495;PMS5003;42804;55.762;38.084;2023-07-31T10:28:03;5.60;5.60;4.00
56495;PMS5003;42804;55.762;38.084;2023-07-31T10:30:32;6.20;6.00;5.00
56495;PMS5003;42804;55.762;38.084;2023-07-31T10:33:01;5.00;5.00;3.40
56495;PMS5003;42804;55.762;38.084;2023-07-31T10:35:30;3.60;3.60;2.80
56495;PMS5003;42804;55.762;38.084;2023-07-31T10:38:10;5.80;5.80;4.80
56495;PMS5003;42804;55.762;38.084;2023-07-31T10:40:39;6.20;5.20;4.40
56495;PMS5003;42804;55.762;38.084;2023-07-31T10:43:07;7.75;6.75;5.00
56495;PMS5003;42804;55.762;38.084;2023-07-31T10:45:38;4.00;4.00;3.40
56495;PMS5003;42804;55.762;38.084;2023-07-31T10:48:12;5.20;5.20;4.00
56495;PMS5003;42804;55.762;38.084;2023-07-31T10:50:46;4.00;4.00;3.00
56495;PMS5003;42804;55.762;38.084;2023-07-31T10:53:23;5.00;5.00;4.00
56495;PMS5003;42804;55.762;38.084;2023-07-31T10:55:52;3.75;3.00;3.00
56495;PMS5003;42804;55.762;38.084;2023-07-31T10:58:20;5.20;5.20;4.60
56495;PMS5003;42804;55.762;38.084;2023-07-31T11:00:48;5.80;4.40;3.40
56495;PMS5003;42804;55.762;38.084;2023-07-31T11:03:18;4.00;4.00;3.00
56495;PMS5003;42804;55.762;38.084;2023-07-31T11:05:48;3.00;3.00;2.00
56495;PMS5003;42804;55.762;38.084;2023-07-31T11:08:18;4.80;4.40;4.00
56495;PMS5003;42804;55.762;38.084;2023-07-31T11:10:49;5.00;5.00;4.00
56495;PMS5003;42804;55.762;38.084;2023-07-31T11:13:17;4.00;4.00;3.25
56495;PMS5003;42804;55.762;38.084;2023-07-31T11:15:46;10.50;9.50;6.75
56495;PMS5003;42804;55.762;38.084;2023-07-31T11:18:14;2.25;2.25;2.00
56495;PMS5003;42804;55.762;38.084;2023-07-31T11:20:43;5.00;5.00;3.00
56495;PMS5003;42804;55.762;38.084;2023-07-31T11:23:15;5.00;5.00;4.20
56495;PMS5003;42804;55.762;38.084;2023-07-31T11:25:43;5.00;5.00;3.75
56495;PMS5003;42804;55.762;38.084;2023-07-31T11:28:14;6.00;5.00;4.00
56495;PMS5003;42804;55.762;38.084;2023-07-31T11:30:43;5.00;5.00;5.00
56495;PMS5003;42804;55.762;38.084;2023-07-31T11:33:13;5.00;4.75;3.75
56495;PMS5003;42804;55.762;38.084;2023-07-31T11:35:43;6.00;5.60;3.80
56495;PMS5003;42804;55.762;38.084;2023-07-31T11:38:12;3.00;2.50;1.00
56495;PMS5003;42804;55.762;38.084;2023-07-31T11:40:41;5.20;5.20;4.20
56495;PMS5003;42804;55.762;38.084;2023-07-31T11:43:10;4.20;4.20;3.00
56495;PMS5003;42804;55.762;38.084;2023-07-31T11:45:45;7.00;6.50;5.00
56495;PMS5003;42804;55.762;38.084;2023-07-31T11:48:21;6.00;5.60;4.40
56495;PMS5003;42804;55.762;38.084;2023-07-31T11:50:50;5.25;4.75;3.75
56495;PMS5003;42804;55.762;38.084;2023-07-31T11:53:19;7.00;7.00;5.00
56495;PMS5003;42804;55.762;38.084;2023-07-31T11:55:48;9.75;8.25;7.00
56495;PMS5003;42804;55.762;38.084;2023-07-31T11:58:17;6.00;6.00;5.00
56495;PMS5003;42804;55.762;38.084;2023-07-31T12:00:47;5.60;5.60;4.00
56495;PMS5003;42804;55.762;38.084;2023-07-31T12:03:16;6.80;6.00;4.20
56495;PMS5003;42804;55.762;38.084;2023-07-31T12:05:44;6.25;6.25;5.00
56495;PMS5003;42804;55.762;38.084;2023-07-31T12:08:16;8.00;7.75;5.50
56495;PMS5003;42804;55.762;38.084;2023-07-31T12:10:44;6.50;6.00;5.00
56495;PMS5003;42804;55.762;38.084;2023-07-31T12:13:19;9.25;8.50;7.00
56495;PMS5003;42804;55.762;38.084;2023-07-31T12:15:53;6.00;6.00;4.25
56495;PMS5003;42804;55.762;38.084;2023-07-31T12:18:22;7.00;7.00;5.00
56495;PMS5003;42804;55.762;38.084;2023-07-31T12:20:53;6.75;6.00;4.25
56495;PMS5003;42804;55.762;38.084;2023-07-31T12:23:22;6.75;6.00;4.00
56495;PMS5003;42804;55.762;38.084;2023-07-31T12:26:01;6.40;6.40;5.40
56495;PMS5003;42804;55.762;38.084;2023-07-31T12:28:29;6.50;6.50;5.50
56495;PMS5003;42804;55.762;38.084;2023-07-31T12:31:00;7.50;6.75;5.25
56495;PMS5003;42804;55.762;38.084;2023-07-31T12:33:30;4.00;4.00;2.80
56495;PMS5003;42804;55.762;38.084;2023-07-31T12:36:00;9.00;8.50;6.00
56495;PMS5003;42804;55.762;38.084;2023-07-31T12:38:29;10.25;9.25;8.00
56495;PMS5003;42804;55.762;38.084;2023-07-31T12:40:58;6.75;6.50;5.75
56495;PMS5003;42804;55.762;38.084;2023-07-31T12:43:26;7.25;7.25;5.25
56495;PMS5003;42804;55.762;38.084;2023-07-31T12:45:54;8.00;8.00;6.00
56495;PMS5003;42804;55.762;38.084;2023-07-31T12:48:24;7.25;6.50;5.50
56495;PMS5003;42804;55.762;38.084;2023-07-31T12:50:52;5.75;5.75;4.50
56495;PMS5003;42804;55.762;38.084;2023-07-31T12:53:21;6.25;6.25;5.50
56495;PMS5003;42804;55.762;38.084;2023-07-31T12:55:49;7.00;6.50;4.75
56495;PMS5003;42804;55.762;38.084;2023-07-31T12:58:17;4.75;4.75;2.75
56495;PMS5003;42804;55.762;38.084;2023-07-31T13:00:46;8.00;7.00;5.25
56495;PMS5003;42804;55.762;38.084;2023-07-31T13:03:14;6.00;6.00;4.00
56495;PMS5003;42804;55.762;38.084;2023-07-31T13:05:44;8.00;7.20;5.60
56495;PMS5003;42804;55.762;38.084;2023-07-31T13:08:12;5.50;5.50;4.50
56495;PMS5003;42804;55.762;38.084;2023-07-31T13:10:42;6.75;6.75;4.25
56495;PMS5003;42804;55.762;38.084;2023-07-31T13:13:11;9.00;7.00;5.25
56495;PMS5003;42804;55.762;38.084;2023-07-31T13:15:39;8.60;8.00;6.00
56495;PMS5003;42804;55.762;38.084;2023-07-31T13:18:07;9.50;7.75;5.00
56495;PMS5003;42804;55.762;38.084;2023-07-31T13:20:36;7.20;7.20;5.80
56495;PMS5003;42804;55.762;38.084;2023-07-31T13:23:05;8.25;8.25;5.25
56495;PMS5003;42804;55.762;38.084;2023-07-31T13:25:34;7.75;7.00;6.00
56495;PMS5003;42804;55.762;38.084;2023-07-31T13:28:02;8.25;8.25;6.00
56495;PMS5003;42804;55.762;38.084;2023-07-31T13:30:30;10.00;10.00;7.75
56495;PMS5003;42804;55.762;38.084;2023-07-31T13:32:58;8.00;8.00;6.00
56495;PMS5003;42804;55.762;38.084;2023-07-31T13:35:27;5.00;5.00;4.75
56495;PMS5003;42804;55.762;38.084;2023-07-31T13:37:55;7.20;7.20;6.00
56495;PMS5003;42804;55.762;38.084;2023-07-31T13:40:25;8.75;8.75;7.25
56495;PMS5003;42804;55.762;38.084;2023-07-31T13:42:53;8.00;7.25;6.00
56495;PMS5003;42804;55.762;38.084;2023-07-31T13:45:22;7.50;7.25;5.75
56495;PMS5003;42804;55.762;38.084;2023-07-31T13:47:50;8.75;8.50;6.75
56495;PMS5003;42804;55.762;38.084;2023-07-31T13:50:19;8.50;8.25;6.50
56495;PMS5003;42804;55.762;38.084;2023-07-31T13:52:49;10.00;9.25;7.00
56495;PMS5003;42804;55.762;38.084;2023-07-31T13:55:17;6.75;6.75;4.75
56495;PMS5003;42804;55.762;38.084;2023-07-31T13:57:47;9.75;9.75;7.00
56495;PMS5003;42804;55.762;38.084;2023-07-31T14:00:15;8.00;7.75;6.75
56495;PMS5003;42804;55.762;38.084;2023-07-31T14:02:43;7.75;7.75;5.75
56495;PMS5003;42804;55.762;38.084;2023-07-31T14:05:12;8.00;7.50;5.25
56495;PMS5003;42804;55.762;38.084;2023-07-31T14:07:40;8.00;8.00;6.00
56495;PMS5003;42804;55.762;38.084;2023-07-31T14:10:08;7.25;7.25;5.25
56495;PMS5003;42804;55.762;38.084;2023-07-31T14:12:36;5.00;5.00;3.40
56495;PMS5003;42804;55.762;38.084;2023-07-31T14:15:10;8.50;8.00;6.00
56495;PMS5003;42804;55.762;38.084;2023-07-31T14:17:39;8.00;7.50;5.75